Time;durP1;ratioP1;P1;durP2;ratioP2;P2;SDS_P1;SDS_P2;PMS_P1;PMS_P2;Temp;Humidity;BMP_temperature;BMP_pressure;BME280_temperature;BME280_humidity;BME280_pressure;Samples;Min_cycle;Max_cycle;Signal;HPM_P1;HPM_P2
2024/02/19 00:00:50;;;;;;;11.48;3.58;;;;;;;10.82;100.00;102585.88;5282423;28;20085;-75
2024/02/19 00:03:22;;;;;;;14.88;3.72;;;;;;;10.85;100.00;102582.25;5280240;28;20478;-75
2024/02/19 00:05:55;;;;;;;14.68;3.50;;;;;;;10.81;100.00;102584.22;5283069;28;20040;-76
2024/02/19 00:08:26;;;;;;;13.75;3.35;;;;;;;10.86;100.00;102584.78;5284397;28;20047;-76
2024/02/19 00:10:58;;;;;;;11.43;3.40;;;;;;;10.87;100.00;102583.00;5285134;28;20028;-76
2024/02/19 00:13:30;;;;;;;14.82;4.10;;;;;;;10.85;100.00;102582.25;5283991;28;20027;-76
2024/02/19 00:16:02;;;;;;;16.45;3.30;;;;;;;10.86;100.00;102578.69;5279871;28;20035;-76
2024/02/19 00:18:34;;;;;;;16.92;4.40;;;;;;;10.84;100.00;102589.28;5284346;28;20462;-76
2024/02/19 00:21:06;;;;;;;11.30;3.80;;;;;;;10.70;100.00;102597.09;5284308;28;20057;-76
2024/02/19 00:23:38;;;;;;;12.98;3.90;;;;;;;10.68;100.00;102598.94;5284721;28;20056;-76
2024/02/19 00:26:10;;;;;;;14.70;3.88;;;;;;;10.65;100.00;102602.59;5281610;28;20032;-76
2024/02/19 00:28:42;;;;;;;10.82;3.50;;;;;;;10.64;100.00;102600.88;5284777;28;20087;-76
2024/02/19 00:31:16;;;;;;;11.50;3.90;;;;;;;10.68;100.00;102610.28;5282703;28;20358;-76
2024/02/19 00:33:48;;;;;;;15.10;4.40;;;;;;;10.65;100.00;102615.72;5282155;28;20043;-76
2024/02/19 00:36:19;;;;;;;17.45;4.95;;;;;;;10.62;100.00;102609.78;5282189;28;20443;-76
2024/02/19 00:38:54;;;;;;;13.55;5.15;;;;;;;10.63;100.00;102608.84;5281022;28;20307;-76
2024/02/19 00:41:26;;;;;;;14.23;4.38;;;;;;;10.60;100.00;102609.88;5285215;28;20039;-75
2024/02/19 00:43:57;;;;;;;15.95;4.75;;;;;;;10.61;100.00;102608.13;5283809;28;20466;-76
2024/02/19 00:46:29;;;;;;;12.57;4.85;;;;;;;10.53;100.00;102597.19;5283357;28;20036;-76
2024/02/19 00:49:01;;;;;;;18.80;4.35;;;;;;;10.53;100.00;102598.06;5278995;28;20034;-76
2024/02/19 00:51:34;;;;;;;16.88;4.20;;;;;;;10.53;100.00;102607.69;5284039;28;20047;-76
2024/02/19 00:54:06;;;;;;;17.58;4.93;;;;;;;10.48;100.00;102594.84;5281130;28;20445;-76
2024/02/19 00:56:38;;;;;;;19.38;5.32;;;;;;;10.51;100.00;102617.41;5282368;28;20048;-76
2024/02/19 00:59:10;;;;;;;18.63;5.05;;;;;;;10.52;100.00;102619.09;5283787;28;20034;-76
2024/02/19 01:01:42;;;;;;;16.65;5.07;;;;;;;10.51;100.00;102614.78;5284234;28;20199;-76
2024/02/19 01:04:14;;;;;;;22.20;5.63;;;;;;;10.51;100.00;102620.88;5283745;28;20431;-76
2024/02/19 01:06:46;;;;;;;18.30;4.53;;;;;;;10.51;100.00;102613.00;5281742;28;20036;-76
2024/02/19 01:09:17;;;;;;;14.10;3.95;;;;;;;10.50;100.00;102619.19;5283136;28;20036;-76
2024/02/19 01:11:49;;;;;;;16.45;4.05;;;;;;;10.53;100.00;102615.53;5282044;28;20028;-76
2024/02/19 01:14:21;;;;;;;18.83;5.22;;;;;;;10.51;100.00;102615.63;5281792;28;20040;-76
2024/02/19 01:16:53;;;;;;;24.73;5.30;;;;;;;10.53;100.00;102615.53;5287818;28;20402;-76
2024/02/19 01:19:26;;;;;;;17.10;3.88;;;;;;;10.50;100.00;102610.50;5287218;28;20032;-76
2024/02/19 01:21:58;;;;;;;13.93;3.92;;;;;;;10.52;100.00;102613.84;5286304;28;20035;-76
2024/02/19 01:24:31;;;;;;;18.38;4.05;;;;;;;10.52;100.00;102619.94;5288307;28;20485;-75
2024/02/19 01:27:03;;;;;;;20.42;4.85;;;;;;;10.53;100.00;102623.41;5287937;28;20028;-76
2024/02/19 01:29:35;;;;;;;20.52;4.03;;;;;;;10.50;100.00;102628.84;5287187;28;20055;-76
2024/02/19 01:32:07;;;;;;;17.80;4.50;;;;;;;10.45;100.00;102629.94;5284324;28;20024;-76
2024/02/19 01:34:39;;;;;;;16.15;3.97;;;;;;;10.48;100.00;102639.38;5288981;28;20048;-76
2024/02/19 01:37:11;;;;;;;15.50;4.25;;;;;;;10.47;100.00;102635.94;5287655;28;20785;-75
2024/02/19 01:39:43;;;;;;;18.23;4.20;;;;;;;10.41;100.00;102627.56;5286346;28;20036;-75
2024/02/19 01:42:14;;;;;;;14.30;4.07;;;;;;;10.44;100.00;102638.72;5285039;28;20035;-76
2024/02/19 01:44:46;;;;;;;15.57;4.32;;;;;;;10.43;100.00;102639.66;5286542;28;20028;-76
2024/02/19 01:47:18;;;;;;;15.35;3.97;;;;;;;10.44;100.00;102643.09;5288053;28;20028;-76
2024/02/19 01:49:50;;;;;;;11.73;3.53;;;;;;;10.43;100.00;102647.50;5287812;28;20476;-76
2024/02/19 01:52:24;;;;;;;16.55;4.40;;;;;;;10.39;100.00;102656.47;5284674;28;20032;-76
2024/02/19 01:54:56;;;;;;;16.00;4.65;;;;;;;10.38;100.00;102651.28;5279782;28;20495;-76
2024/02/19 01:57:28;;;;;;;16.98;4.82;;;;;;;10.40;100.00;102652.91;5287880;28;20041;-76
2024/02/19 02:00:10;;;;;;;15.18;4.53;;;;;;;10.40;100.00;102647.69;5286367;28;20568;-76
2024/02/19 02:02:42;;;;;;;18.85;4.20;;;;;;;10.40;100.00;102638.97;5284012;28;20894;-76
2024/02/19 02:05:15;;;;;;;15.15;3.55;;;;;;;10.34;100.00;102636.69;5282991;28;20036;-76
2024/02/19 02:07:48;;;;;;;16.13;4.72;;;;;;;10.36;100.00;102642.69;5285324;28;20025;-76
2024/02/19 02:10:20;;;;;;;16.00;3.83;;;;;;;10.32;100.00;102655.13;5288250;28;20047;-76
2024/02/19 02:12:52;;;;;;;16.30;3.77;;;;;;;10.33;100.00;102646.31;5284098;28;20040;-76
2024/02/19 02:15:24;;;;;;;18.77;4.00;;;;;;;10.30;100.00;102650.88;5286453;28;20049;-77
2024/02/19 02:17:56;;;;;;;16.10;4.03;;;;;;;10.26;100.00;102649.34;5286580;28;20378;-76
2024/02/19 02:20:28;;;;;;;16.15;4.85;;;;;;;10.29;100.00;102659.69;5287139;28;20028;-77
2024/02/19 02:23:02;;;;;;;14.65;3.53;;;;;;;10.31;100.00;102653.44;5284081;28;20032;-75
2024/02/19 02:25:34;;;;;;;16.88;4.25;;;;;;;10.31;100.00;102658.66;5286548;28;20039;-76
2024/02/19 02:28:05;;;;;;;16.83;4.00;;;;;;;10.30;100.00;102651.72;5285003;28;20039;-77
2024/02/19 02:30:38;;;;;;;16.60;4.20;;;;;;;10.30;100.00;102658.75;5285773;28;20366;-76
2024/02/19 02:33:10;;;;;;;15.23;4.03;;;;;;;10.31;100.00;102647.34;5284360;28;20032;-77
2024/02/19 02:35:42;;;;;;;18.95;4.00;;;;;;;10.27;100.00;102657.16;5284785;28;20039;-77
2024/02/19 02:38:14;;;;;;;17.08;4.18;;;;;;;10.27;100.00;102646.66;5287416;28;20032;-77
2024/02/19 02:40:45;;;;;;;14.90;3.78;;;;;;;10.27;100.00;102651.91;5285134;28;20035;-77
2024/02/19 02:43:17;;;;;;;15.95;3.75;;;;;;;10.25;100.00;102653.75;5286004;28;20036;-76
2024/02/19 02:45:49;;;;;;;14.43;3.92;;;;;;;10.28;100.00;102648.34;5287150;28;20496;-77
2024/02/19 02:48:22;;;;;;;17.77;3.92;;;;;;;10.29;100.00;102641.34;5286166;28;20039;-76
2024/02/19 02:50:54;;;;;;;18.52;4.05;;;;;;;10.31;100.00;102644.72;5286190;28;20403;-77
2024/02/19 02:53:26;;;;;;;16.85;3.63;;;;;;;10.26;100.00;102646.75;5285306;28;20054;-76
2024/02/19 02:55:58;;;;;;;16.80;3.92;;;;;;;10.26;100.00;102636.25;5285199;28;20506;-76
2024/02/19 02:58:29;;;;;;;18.30;3.95;;;;;;;10.21;100.00;102639.94;5286187;28;20031;-76
2024/02/19 03:01:01;;;;;;;19.83;4.53;;;;;;;10.21;100.00;102641.72;5280936;28;20031;-76
2024/02/19 03:03:33;;;;;;;16.10;3.30;;;;;;;10.19;100.00;102633.09;5277654;28;20038;-76
2024/02/19 03:06:05;;;;;;;14.15;3.67;;;;;;;10.17;100.00;102637.59;5283844;28;20493;-77
2024/02/19 03:08:37;;;;;;;13.73;3.63;;;;;;;10.18;100.00;102626.16;5280378;28;20039;-77
2024/02/19 03:11:09;;;;;;;12.30;2.80;;;;;;;10.12;100.00;102621.28;5285495;28;20037;-76
2024/02/19 03:13:41;;;;;;;15.18;3.53;;;;;;;10.16;100.00;102638.53;5284602;28;20156;-77
2024/02/19 03:16:16;;;;;;;14.57;3.35;;;;;;;10.14;100.00;102625.50;5285092;28;20037;-77
2024/02/19 03:18:48;;;;;;;20.35;4.53;;;;;;;10.18;100.00;102636.66;5285774;28;20020;-77
2024/02/19 03:21:20;;;;;;;17.42;4.60;;;;;;;10.19;100.00;102633.09;5285339;28;20039;-77
2024/02/19 03:23:51;;;;;;;16.00;3.33;;;;;;;10.15;100.00;102635.06;5286389;28;20382;-77
2024/02/19 03:26:24;;;;;;;12.15;3.35;;;;;;;10.16;100.00;102638.53;5282677;28;20038;-77
2024/02/19 03:28:57;;;;;;;12.63;3.17;;;;;;;10.20;100.00;102642.66;5284838;28;20023;-77
2024/02/19 03:31:29;;;;;;;9.98;3.20;;;;;;;10.23;100.00;102637.25;5286854;28;20036;-77
2024/02/19 03:34:01;;;;;;;11.15;3.50;;;;;;;10.21;100.00;102632.09;5283573;28;20498;-77
2024/02/19 03:36:33;;;;;;;15.82;3.63;;;;;;;10.21;100.00;102634.69;5282700;28;20038;-76
2024/02/19 03:39:05;;;;;;;15.25;3.65;;;;;;;10.24;100.00;102620.59;5283558;28;20040;-76
2024/02/19 03:41:37;;;;;;;11.93;2.70;;;;;;;10.23;100.00;102626.78;5283608;28;20034;-78
2024/02/19 03:44:08;;;;;;;13.82;3.05;;;;;;;10.24;100.00;102631.09;5285142;28;20406;-77
2024/02/19 03:46:40;;;;;;;12.05;2.95;;;;;;;10.20;100.00;102634.81;5285894;28;20036;-77
2024/02/19 03:49:12;;;;;;;13.02;3.10;;;;;;;10.19;100.00;102630.47;5285467;28;20032;-78
2024/02/19 03:51:44;;;;;;;16.17;3.40;;;;;;;10.17;100.00;102634.97;5284821;28;20580;-77
2024/02/19 03:54:17;;;;;;;11.88;3.00;;;;;;;10.18;100.00;102631.41;5285488;28;20050;-76
2024/02/19 03:56:51;;;;;;;16.58;3.50;;;;;;;10.18;100.00;102634.88;5286554;28;20055;-75
2024/02/19 03:59:22;;;;;;;15.65;2.97;;;;;;;10.17;100.00;102632.34;5282212;28;20024;-77
2024/02/19 04:01:54;;;;;;;13.25;3.13;;;;;;;10.15;100.00;102629.81;5283678;28;20042;-77
2024/02/19 04:04:26;;;;;;;13.55;3.22;;;;;;;10.14;100.00;102629.88;5285078;28;20032;-75
2024/02/19 04:06:58;;;;;;;11.45;3.38;;;;;;;10.16;100.00;102622.81;5277876;28;20381;-77
2024/02/19 04:09:30;;;;;;;10.40;3.10;;;;;;;10.16;100.00;102618.41;5284420;28;20032;-77
2024/02/19 04:12:04;;;;;;;16.98;3.50;;;;;;;10.15;100.00;102623.72;5284295;28;20047;-75
2024/02/19 04:14:40;;;;;;;11.40;2.72;;;;;;;10.18;100.00;102623.56;5283613;28;20504;-77
2024/02/19 04:17:12;;;;;;;14.93;3.20;;;;;;;10.11;100.00;102622.19;5283275;28;20477;-78
2024/02/19 04:19:44;;;;;;;13.85;3.33;;;;;;;10.10;100.00;102616.13;5284327;28;20027;-75
2024/02/19 04:22:16;;;;;;;11.13;2.93;;;;;;;10.13;100.00;102609.88;5287098;28;20222;-75
2024/02/19 04:24:48;;;;;;;13.18;3.67;;;;;;;10.11;100.00;102609.94;5284723;28;20036;-76
2024/02/19 04:27:20;;;;;;;12.80;2.90;;;;;;;10.13;100.00;102615.09;5286223;28;20039;-78
2024/02/19 04:29:52;;;;;;;12.45;3.22;;;;;;;10.15;100.00;102616.72;5281307;28;20036;-76
2024/02/19 04:32:23;;;;;;;13.98;3.85;;;;;;;10.17;100.00;102621.88;5285690;28;20028;-77
2024/02/19 04:34:57;;;;;;;14.70;3.53;;;;;;;10.19;100.00;102625.22;5285954;28;20374;-76
2024/02/19 04:37:30;;;;;;;12.35;3.13;;;;;;;10.21;100.00;102626.84;5284695;28;20032;-77
2024/02/19 04:40:02;;;;;;;13.40;3.05;;;;;;;10.19;100.00;102615.63;5282299;28;20032;-77
2024/02/19 04:42:34;;;;;;;13.77;3.22;;;;;;;10.20;100.00;102621.72;5284685;28;20028;-77
2024/02/19 04:45:06;;;;;;;12.48;3.45;;;;;;;10.22;100.00;102625.91;5284597;28;20400;-75
2024/02/19 04:47:38;;;;;;;9.57;3.13;;;;;;;10.19;100.00;102610.38;5283069;28;20223;-75
2024/02/19 04:50:10;;;;;;;11.60;3.10;;;;;;;10.23;100.00;102618.94;5282951;28;20035;-76
2024/02/19 04:52:42;;;;;;;13.07;3.30;;;;;;;10.24;100.00;102615.38;5283936;28;20497;-75
2024/02/19 04:55:14;;;;;;;11.30;3.63;;;;;;;10.27;100.00;102620.47;5284678;28;20035;-75
2024/02/19 04:57:46;;;;;;;11.55;3.20;;;;;;;10.20;100.00;102604.22;5284121;28;20044;-77
2024/02/19 05:00:18;;;;;;;9.80;2.55;;;;;;;10.28;100.00;102619.53;5284979;28;20059;-78
2024/02/19 05:02:50;;;;;;;13.00;3.25;;;;;;;10.30;100.00;102622.91;5283496;28;20037;-77
2024/02/19 05:05:22;;;;;;;14.20;3.83;;;;;;;10.28;100.00;102631.78;5282548;28;20032;-77
2024/02/19 05:07:54;;;;;;;11.23;2.85;;;;;;;10.28;100.00;102635.25;5285287;28;20460;-75
2024/02/19 05:10:25;;;;;;;12.30;2.88;;;;;;;10.30;100.00;102635.16;5285315;28;20051;-77
2024/02/19 05:12:58;;;;;;;14.77;2.95;;;;;;;10.24;100.00;102636.31;5265557;28;20048;-78
2024/02/19 05:15:29;;;;;;;15.55;3.67;;;;;;;10.29;100.00;102639.56;5280997;28;20047;-77
2024/02/19 05:18:02;;;;;;;11.55;3.00;;;;;;;10.29;100.00;102633.47;5284416;28;20373;-77
2024/02/19 05:20:35;;;;;;;9.73;2.85;;;;;;;10.31;100.00;102631.63;5277154;28;20032;-77
2024/02/19 05:23:07;;;;;;;10.70;2.97;;;;;;;10.36;100.00;102637.44;5281823;28;20027;-77
2024/02/19 05:25:39;;;;;;;13.73;3.20;;;;;;;10.24;100.00;102616.22;5283919;28;20032;-78
2024/02/19 05:28:11;;;;;;;11.43;2.80;;;;;;;10.33;100.00;102621.91;5282542;28;20290;-75
2024/02/19 05:30:43;;;;;;;14.65;3.55;;;;;;;10.30;100.00;102617.66;5284182;28;20028;-77
2024/02/19 05:33:18;;;;;;;12.65;2.80;;;;;;;10.32;100.00;102607.13;5283788;28;20036;-76
2024/02/19 05:35:50;;;;;;;11.15;3.00;;;;;;;10.36;100.00;102625.19;5279045;28;20028;-76
2024/02/19 05:38:22;;;;;;;12.75;2.90;;;;;;;10.36;100.00;102626.97;5278904;28;20035;-78
2024/02/19 05:40:54;;;;;;;10.70;3.20;;;;;;;10.35;100.00;102625.28;5284156;28;20028;-76
2024/02/19 05:43:26;;;;;;;9.57;2.90;;;;;;;10.35;100.00;102620.91;5281543;28;20042;-78
2024/02/19 05:45:58;;;;;;;11.80;3.00;;;;;;;10.35;100.00;102623.50;5283261;28;20424;-77
2024/02/19 05:48:30;;;;;;;10.77;2.38;;;;;;;10.36;100.00;102613.88;5282110;28;20043;-77
2024/02/19 05:51:03;;;;;;;13.77;3.10;;;;;;;10.39;100.00;102611.94;5281814;28;20035;-78
2024/02/19 05:53:36;;;;;;;11.43;2.67;;;;;;;10.43;100.00;102610.81;5281375;28;20036;-77
2024/02/19 05:56:09;;;;;;;11.32;2.70;;;;;;;10.43;100.00;102616.06;5279271;28;20043;-77
2024/02/19 05:58:41;;;;;;;9.70;2.90;;;;;;;10.42;100.00;102614.38;5280373;28;20040;-77
2024/02/19 06:01:13;;;;;;;15.88;3.10;;;;;;;10.41;100.00;102622.31;5288262;28;20667;-75
2024/02/19 06:03:45;;;;;;;9.73;2.45;;;;;;;10.44;100.00;102630.00;5286960;28;20456;-75
2024/02/19 06:06:17;;;;;;;10.57;2.90;;;;;;;10.27;100.00;102607.38;5286116;28;20036;-76
2024/02/19 06:08:49;;;;;;;12.00;2.63;;;;;;;10.41;100.00;102635.41;5262387;28;20044;-76
2024/02/19 06:11:21;;;;;;;12.40;2.78;;;;;;;10.43;100.00;102636.19;5285598;28;20536;-77
2024/02/19 06:13:53;;;;;;;11.80;3.45;;;;;;;10.38;100.00;102632.97;5289320;28;20035;-78
2024/02/19 06:16:25;;;;;;;12.95;3.70;;;;;;;10.41;100.00;102625.78;5284893;28;20402;-77
2024/02/19 06:19:01;;;;;;;14.10;3.15;;;;;;;10.39;100.00;102618.94;5283664;28;20032;-77
2024/02/19 06:21:32;;;;;;;8.30;2.03;;;;;;;10.40;100.00;102631.94;5289193;28;20028;-76
2024/02/19 06:24:05;;;;;;;15.70;3.05;;;;;;;10.40;100.00;102626.72;5286254;28;20036;-76
2024/02/19 06:26:37;;;;;;;8.80;2.47;;;;;;;10.30;100.00;102609.81;5291026;28;20032;-78
2024/02/19 06:29:10;;;;;;;10.30;2.80;;;;;;;10.43;100.00;102634.41;5289533;28;20397;-77
2024/02/19 06:31:44;;;;;;;;;;;;;;;11.00;100.00;102622.47;5287089;28;20032;-77
2024/02/19 06:34:16;;;;;;;14.07;3.00;;;;;;;10.48;100.00;102629.75;5290954;28;20187;-76
2024/02/19 06:36:48;;;;;;;13.50;3.95;;;;;;;10.48;100.00;102639.38;5290488;28;20394;-76
2024/02/19 06:39:20;;;;;;;15.60;4.15;;;;;;;10.45;100.00;102640.41;5288636;28;20028;-77
2024/02/19 06:41:52;;;;;;;12.98;3.70;;;;;;;10.45;100.00;102645.66;5287845;28;20349;-77
2024/02/19 06:44:24;;;;;;;11.52;3.63;;;;;;;10.43;100.00;102633.56;5289972;28;20469;-76
2024/02/19 06:46:56;;;;;;;15.23;3.53;;;;;;;10.48;100.00;102637.59;5289203;28;20374;-77
2024/02/19 06:49:28;;;;;;;13.65;4.53;;;;;;;10.51;100.00;102638.38;5286093;28;20127;-77
2024/02/19 06:52:00;;;;;;;11.15;3.63;;;;;;;10.51;100.00;102633.97;5288149;28;20036;-77
2024/02/19 06:54:32;;;;;;;14.82;4.50;;;;;;;10.51;100.00;102631.34;5287709;28;20042;-77
2024/02/19 06:57:04;;;;;;;12.93;3.80;;;;;;;10.52;100.00;102630.41;5289300;28;20500;-75
2024/02/19 06:59:35;;;;;;;14.30;4.20;;;;;;;10.52;100.00;102630.41;5283486;28;20039;-77
2024/02/19 07:02:08;;;;;;;13.23;4.80;;;;;;;10.51;100.00;102633.13;5286614;28;20476;-75
2024/02/19 07:04:40;;;;;;;14.40;4.77;;;;;;;10.55;100.00;102629.41;5284124;28;20036;-75
2024/02/19 07:07:12;;;;;;;15.80;4.20;;;;;;;10.52;100.00;102638.28;5287549;28;20281;-76
2024/02/19 07:09:44;;;;;;;12.82;4.13;;;;;;;10.51;100.00;102633.97;5286659;28;20040;-76
2024/02/19 07:12:16;;;;;;;16.73;4.80;;;;;;;10.39;100.00;102626.81;5283558;28;20047;-77
2024/02/19 07:14:47;;;;;;;15.13;4.72;;;;;;;10.50;100.00;102639.31;5284698;28;20129;-76
2024/02/19 07:17:19;;;;;;;14.20;4.50;;;;;;;10.51;100.00;102628.75;5288988;28;20495;-76
2024/02/19 07:19:51;;;;;;;13.65;4.65;;;;;;;10.55;100.00;102637.28;5285738;28;20036;-77
2024/02/19 07:22:23;;;;;;;14.27;5.22;;;;;;;10.56;100.00;102634.56;5287457;28;20019;-76
2024/02/19 07:24:55;;;;;;;16.20;4.88;;;;;;;10.56;100.00;102634.56;5277477;28;20279;-76
2024/02/19 07:27:27;;;;;;;12.70;4.57;;;;;;;10.56;100.00;102629.31;5284483;28;20400;-74
2024/02/19 07:29:59;;;;;;;13.10;5.00;;;;;;;10.61;100.00;102629.09;5283799;28;20043;-76
2024/02/19 07:32:31;;;;;;;14.65;6.10;;;;;;;10.60;100.00;102635.22;5277508;28;20033;-74
2024/02/19 07:35:03;;;;;;;13.27;5.13;;;;;;;10.57;100.00;102627.53;5282874;28;20032;-75
2024/02/19 07:37:35;;;;;;;12.77;5.18;;;;;;;10.64;100.00;102636.75;5277526;28;20405;-74
2024/02/19 07:40:07;;;;;;;14.15;5.40;;;;;;;10.66;100.00;102634.91;5282548;28;20036;-76
2024/02/19 07:42:39;;;;;;;15.68;5.63;;;;;;;10.70;100.00;102642.50;5287704;28;20044;-76
2024/02/19 07:45:11;;;;;;;12.55;5.38;;;;;;;10.70;100.00;102637.25;5288427;28;20028;-76
2024/02/19 07:47:43;;;;;;;15.88;6.22;;;;;;;10.73;100.00;102636.25;5288368;28;20046;-76
2024/02/19 07:50:15;;;;;;;13.85;5.40;;;;;;;10.76;100.00;102633.44;5282694;28;20114;-76
2024/02/19 07:52:47;;;;;;;11.50;5.55;;;;;;;10.77;100.00;102627.28;5284456;28;20119;-76
2024/02/19 07:55:19;;;;;;;13.45;6.22;;;;;;;10.81;100.00;102626.16;5279925;28;20055;-76
2024/02/19 07:57:51;;;;;;;17.48;6.60;;;;;;;10.86;100.00;102623.25;5284314;28;20035;-75
2024/02/19 08:00:23;;;;;;;15.27;5.72;;;;;;;10.89;100.00;102623.94;5286645;28;20019;-76
2024/02/19 08:02:55;;;;;;;15.70;6.57;;;;;;;10.91;100.00;102619.47;5288832;28;20499;-76
2024/02/19 08:05:27;;;;;;;14.98;7.07;;;;;;;10.98;100.00;102611.22;5286384;28;20048;-75
2024/02/19 08:07:59;;;;;;;14.52;7.15;;;;;;;10.99;100.00;102613.78;5282632;28;20025;-76
2024/02/19 08:10:31;;;;;;;18.67;7.50;;;;;;;10.98;100.00;102612.06;5288973;28;20047;-76
2024/02/19 08:13:03;;;;;;;16.83;7.47;;;;;;;11.05;100.00;102617.78;5284735;28;20881;-77
2024/02/19 08:15:40;;;;;;;18.02;7.45;;;;;;;11.12;100.00;102612.09;5284865;28;20044;-76
2024/02/19 08:18:12;;;;;;;16.88;8.30;;;;;;;11.15;100.00;102616.34;5281805;28;20039;-76
2024/02/19 08:20:44;;;;;;;16.23;8.02;;;;;;;11.17;100.00;102614.44;5281515;28;20030;-77
2024/02/19 08:23:17;;;;;;;19.17;8.73;;;;;;;11.22;100.00;102617.66;5285828;28;20226;-76
2024/02/19 08:25:49;;;;;;;14.77;8.73;;;;;;;11.22;100.00;102622.91;5286522;28;20098;-76
2024/02/19 08:28:21;;;;;;;19.25;9.20;;;;;;;11.28;100.00;102634.81;5283977;28;20493;-76
2024/02/19 08:30:53;;;;;;;18.75;9.13;;;;;;;11.32;100.00;102637.16;5280059;28;20040;-76
2024/02/19 08:33:25;;;;;;;19.63;9.65;;;;;;;11.36;100.00;102637.81;5286246;28;20162;-76
2024/02/19 08:36:00;;;;;;;18.23;9.75;;;;;;;11.39;100.00;102635.00;5283379;28;20476;-76
2024/02/19 08:38:33;;;;;;;20.00;9.73;;;;;;;11.39;100.00;102633.22;5264749;28;20046;-76
2024/02/19 08:41:05;;;;;;;16.88;9.88;;;;;;;11.41;100.00;102631.38;5279640;28;20647;-76
2024/02/19 08:43:37;;;;;;;20.60;11.40;;;;;;;11.39;100.00;102637.63;5284922;28;20047;-76
2024/02/19 08:46:09;;;;;;;20.48;12.80;;;;;;;11.38;100.00;102635.97;5283647;28;20035;-76
2024/02/19 08:48:41;;;;;;;21.15;11.38;;;;;;;11.38;100.00;102639.44;5283410;28;20040;-77
2024/02/19 08:51:13;;;;;;;20.55;12.70;;;;;;;11.42;100.00;102638.31;5284061;28;20032;-76
2024/02/19 08:53:44;;;;;;;23.42;13.60;;;;;;;11.47;100.00;102634.56;5284127;28;20451;-76
2024/02/19 08:56:16;;;;;;;23.83;14.38;;;;;;;11.45;100.00;102642.53;5286930;28;20493;-77
2024/02/19 08:58:48;;;;;;;26.48;14.77;;;;;;;11.46;100.00;102654.72;5282347;28;20050;-76
2024/02/19 09:01:20;;;;;;;24.00;15.90;;;;;;;11.49;100.00;102648.44;5282051;28;20028;-76
2024/02/19 09:03:52;;;;;;;25.65;16.58;;;;;;;11.50;100.00;102658.84;5286161;28;20028;-76
2024/02/19 09:06:24;;;;;;;25.10;18.58;;;;;;;11.51;100.00;102663.16;5284840;28;20024;-76
2024/02/19 09:08:57;;;;;;;23.73;18.48;;;;;;;11.48;100.00;102668.59;5287262;28;20497;-76
2024/02/19 09:11:29;;;;;;;32.05;20.55;;;;;;;11.44;100.00;102667.94;5286434;28;20028;-76
2024/02/19 09:14:02;;;;;;;32.90;22.33;;;;;;;11.44;100.00;102669.72;5285100;28;20028;-76
2024/02/19 09:16:34;;;;;;;33.00;21.70;;;;;;;11.48;100.00;102668.59;5284305;28;20046;-77
2024/02/19 09:19:08;;;;;;;30.50;22.65;;;;;;;11.50;100.00;102664.09;5284927;28;20369;-76
2024/02/19 09:21:43;;;;;;;32.22;25.67;;;;;;;11.48;100.00;102654.59;5283603;28;20044;-76
2024/02/19 09:24:15;;;;;;;35.17;26.90;;;;;;;11.42;100.00;102638.31;5282428;28;20032;-77
2024/02/19 09:26:47;;;;;;;38.83;28.25;;;;;;;11.53;100.00;102657.81;5282692;28;20043;-76
2024/02/19 09:29:19;;;;;;;32.85;25.92;;;;;;;11.58;100.00;102663.63;5284273;28;20040;-76
2024/02/19 09:31:51;;;;;;;31.75;26.60;;;;;;;11.54;100.00;102649.84;5283357;28;20043;-76
2024/02/19 09:34:23;;;;;;;35.63;26.30;;;;;;;11.53;100.00;102649.94;5286786;28;20028;-76
2024/02/19 09:36:55;;;;;;;34.95;26.77;;;;;;;11.58;100.00;102651.34;5288973;28;20142;-76
2024/02/19 09:39:27;;;;;;;37.17;25.77;;;;;;;11.66;100.00;102658.75;5289304;28;20027;-76
2024/02/19 09:41:59;;;;;;;34.97;27.10;;;;;;;11.71;100.00;102658.50;5288702;28;20043;-77
2024/02/19 09:44:31;;;;;;;36.90;25.73;;;;;;;11.73;100.00;102654.00;5284727;28;20123;-76
2024/02/19 09:47:06;;;;;;;34.38;26.45;;;;;;;11.78;100.00;102654.53;5285996;28;20093;-77
2024/02/19 09:49:39;;;;;;;31.73;25.92;;;;;;;11.78;100.00;102651.91;5286105;28;20484;-76
2024/02/19 09:52:11;;;;;;;30.42;25.85;;;;;;;11.81;100.00;102649.09;5268865;28;20048;-76
2024/02/19 09:54:44;;;;;;;30.88;24.73;;;;;;;11.81;100.00;102649.94;5289056;28;20389;-76
2024/02/19 09:57:18;;;;;;;28.45;23.90;;;;;;;11.85;100.00;102646.22;5285271;28;20413;-77
2024/02/19 09:59:50;;;;;;;30.67;23.50;;;;;;;11.81;100.00;102644.69;5286857;28;20031;-76
2024/02/19 10:02:22;;;;;;;29.55;22.55;;;;;;;11.80;100.00;102640.38;5285417;28;20527;-76
2024/02/19 10:04:54;;;;;;;26.77;21.25;;;;;;;11.82;100.00;102641.16;5270717;28;20134;-77
2024/02/19 10:07:26;;;;;;;26.25;20.70;;;;;;;11.87;100.00;102638.28;5280546;28;20032;-76
2024/02/19 10:09:57;;;;;;;25.25;20.40;;;;;;;11.89;100.00;102644.25;5289149;28;20032;-77
2024/02/19 10:12:29;;;;;;;23.38;20.05;;;;;;;11.94;100.00;102642.22;5287525;28;20028;-76
2024/02/19 10:15:01;;;;;;;25.13;20.08;;;;;;;11.99;100.00;102647.19;5286425;28;20569;-77
2024/02/19 10:17:34;;;;;;;25.73;18.33;;;;;;;12.01;100.00;102651.41;5286396;28;20107;-77
2024/02/19 10:20:06;;;;;;;23.42;18.90;;;;;;;12.11;100.00;102649.03;5288540;28;20031;-76
2024/02/19 10:22:38;;;;;;;24.80;18.30;;;;;;;12.15;100.00;102648.72;5289879;28;20401;-77
2024/02/19 10:25:12;;;;;;;24.23;16.85;;;;;;;12.09;100.00;102643.88;5288799;28;20036;-77
2024/02/19 10:27:45;;;;;;;18.98;16.58;;;;;;;12.02;100.00;102632.06;5285107;28;20035;-76
2024/02/19 10:30:17;;;;;;;22.20;15.48;;;;;;;12.13;100.00;102641.91;5287450;28;20059;-77
2024/02/19 10:32:50;;;;;;;21.55;16.48;;;;;;;12.12;100.00;102635.81;5285357;28;20036;-76
2024/02/19 10:35:23;;;;;;;17.85;13.48;;;;;;;12.14;100.00;102633.09;5286842;28;20513;-76
2024/02/19 10:37:58;;;;;;;17.98;13.40;;;;;;;12.26;100.00;102628.84;5271875;28;20456;-76
2024/02/19 10:40:30;;;;;;;19.10;12.65;;;;;;;12.27;100.00;102626.09;5286235;28;20036;-76
2024/02/19 10:43:03;;;;;;;19.08;12.85;;;;;;;12.23;100.00;102618.50;5286842;28;20378;-76
2024/02/19 10:45:35;;;;;;;17.75;12.07;;;;;;;12.24;100.00;102621.06;5290718;28;20043;-76
2024/02/19 10:48:08;;;;;;;20.53;12.60;;;;;;;12.27;100.00;102614.75;5289806;28;20039;-76
2024/02/19 10:50:40;;;;;;;16.45;11.27;;;;;;;12.28;100.00;102630.44;5287508;28;20032;-76
2024/02/19 10:53:12;;;;;;;17.95;12.23;;;;;;;12.30;100.00;102623.28;5286519;28;20389;-76
2024/02/19 10:55:45;;;;;;;15.77;11.27;;;;;;;12.30;100.00;102623.28;5289342;28;20052;-76
2024/02/19 10:58:18;;;;;;;18.08;11.05;;;;;;;12.60;100.00;102617.00;5286413;28;20065;-76
2024/02/19 11:00:50;;;;;;;15.73;10.13;;;;;;;12.73;100.00;102609.13;5282452;28;20035;-76
2024/02/19 11:03:22;;;;;;;16.88;9.50;;;;;;;12.69;100.00;102600.63;5287233;28;20032;-76
2024/02/19 11:06:01;;;;;;;15.25;9.35;;;;;;;12.85;100.00;102605.72;5289488;28;20032;-76
2024/02/19 11:08:35;;;;;;;17.30;9.27;;;;;;;12.81;100.00;102607.72;5286474;28;20035;-76
2024/02/19 11:11:07;;;;;;;15.85;9.98;;;;;;;12.88;100.00;102593.19;5289447;28;20036;-77
2024/02/19 11:13:41;;;;;;;19.70;10.15;;;;;;;13.09;100.00;102592.69;5289314;28;20073;-76
2024/02/19 11:16:17;;;;;;;15.40;9.27;;;;;;;13.11;100.00;102589.03;5287813;28;20048;-77
2024/02/19 11:18:53;;;;;;;15.13;9.05;;;;;;;13.17;100.00;102585.13;5286972;28;20047;-77
2024/02/19 11:21:25;;;;;;;18.10;9.27;;;;;;;13.07;100.00;102587.56;5289783;28;20032;-77
2024/02/19 11:23:57;;;;;;;13.48;8.73;;;;;;;13.06;100.00;102585.84;5284066;28;20028;-77
2024/02/19 11:26:31;;;;;;;13.85;8.82;;;;;;;13.04;100.00;102579.84;5288938;28;20497;-77
2024/02/19 11:29:02;;;;;;;18.27;8.52;;;;;;;13.06;100.00;102582.38;5288575;28;20028;-76
2024/02/19 11:31:35;;;;;;;13.70;8.25;;;;;;;13.08;100.00;102572.59;5285936;28;20034;-76